createdAt,value
2022-12-08T00:00:57.099Z,0.00
2022-12-08T00:02:58.976Z,0.02
2022-12-08T00:03:59.141Z,0.02
2022-12-08T00:04:58.577Z,0.00
2022-12-08T00:05:56.702Z,0.01
2022-12-08T00:06:56.116Z,0.00
2022-12-08T00:08:02.763Z,0.00
2022-12-08T00:08:56.841Z,0.01
2022-12-08T00:09:58.161Z,0.00
2022-12-08T00:10:57.857Z,0.00
2022-12-08T00:11:56.817Z,0.00
2022-12-08T00:12:58.252Z,0.01
2022-12-08T00:13:56.526Z,0.00
2022-12-08T00:14:56.950Z,0.05
2022-12-08T00:15:57.242Z,0.00
2022-12-08T00:16:56.883Z,0.00
2022-12-08T00:17:57.962Z,0.00
2022-12-08T00:18:57.275Z,0.02
2022-12-08T00:19:57.651Z,0.00
2022-12-08T00:20:58.076Z,0.00
2022-12-08T00:21:56.443Z,0.00
2022-12-08T00:22:57.750Z,0.00
2022-12-08T00:24:02.412Z,0.02
2022-12-08T00:24:55.422Z,0.00
2022-12-08T00:25:55.801Z,0.00
2022-12-08T00:26:55.181Z,0.00
2022-12-08T00:28:56.881Z,0.00
2022-12-08T00:29:56.201Z,0.00
2022-12-08T00:30:55.587Z,0.00
2022-12-08T00:32:02.285Z,0.01
2022-12-08T00:32:56.332Z,0.00
2022-12-08T00:33:55.667Z,0.00
2022-12-08T00:35:02.655Z,0.01
2022-12-08T00:35:55.361Z,0.00
2022-12-08T00:36:56.652Z,0.00
2022-12-08T00:38:00.802Z,0.00
2022-12-08T00:38:56.389Z,0.00
2022-12-08T00:39:55.795Z,0.00
2022-12-08T00:40:57.952Z,0.00
2022-12-08T00:41:55.552Z,0.00
2022-12-08T00:42:56.796Z,0.00
2022-12-08T00:43:57.421Z,0.00
2022-12-08T00:44:57.483Z,0.02
2022-12-08T00:45:55.904Z,0.00
2022-12-08T00:46:55.177Z,0.00
2022-12-08T00:47:58.736Z,0.00
2022-12-08T00:48:55.935Z,0.02
2022-12-08T00:49:55.286Z,0.00
2022-12-08T00:51:10.191Z,0.00
2022-12-08T00:51:54.937Z,0.00
2022-12-08T00:53:02.602Z,0.00
2022-12-08T00:53:55.661Z,0.00
2022-12-08T00:54:55.058Z,0.00
2022-12-08T00:55:56.449Z,0.00
2022-12-08T00:56:55.705Z,0.00
2022-12-08T00:57:56.077Z,0.00
2022-12-08T00:58:56.360Z,0.00
2022-12-08T00:59:55.680Z,0.00
2022-12-08T01:00:55.174Z,0.00
2022-12-08T01:01:56.520Z,0.00
2022-12-08T01:02:57.892Z,0.00
2022-12-08T01:03:57.163Z,0.00
2022-12-08T01:04:57.587Z,0.00
2022-12-08T01:05:55.856Z,0.02
2022-12-08T01:06:55.216Z,0.00
2022-12-08T01:07:55.565Z,0.00
2022-12-08T01:09:09.541Z,0.00
2022-12-08T01:09:56.352Z,0.00
2022-12-08T01:10:54.641Z,0.00
2022-12-08T01:11:57.061Z,0.00
2022-12-08T01:12:55.705Z,0.00
2022-12-08T01:13:54.751Z,0.00
2022-12-08T01:15:09.726Z,0.00
2022-12-08T01:15:55.606Z,0.00
2022-12-08T01:16:54.931Z,0.00
2022-12-08T01:18:09.881Z,0.00
2022-12-08T01:18:56.576Z,0.00
2022-12-08T01:19:54.846Z,0.00
2022-12-08T01:21:45.240Z,0.00
2022-12-08T01:21:54.524Z,0.00
2022-12-08T01:22:55.958Z,0.05
2022-12-08T01:23:56.221Z,0.00
2022-12-08T01:24:56.595Z,0.00
2022-12-08T01:25:55.870Z,0.00
2022-12-08T01:26:55.270Z,0.00
2022-12-08T01:27:54.666Z,0.00
2022-12-08T01:28:57.296Z,0.00
2022-12-08T01:30:09.955Z,0.00
2022-12-08T01:30:54.806Z,0.00
2022-12-08T01:31:55.101Z,0.00
2022-12-08T01:32:57.571Z,0.00
2022-12-08T01:33:54.826Z,0.00
2022-12-08T01:34:55.266Z,0.00
2022-12-08T01:35:54.571Z,0.00
2022-12-08T01:36:56.937Z,0.00
2022-12-08T01:37:58.374Z,0.00
2022-12-08T01:39:01.957Z,0.00
2022-12-08T01:39:55.036Z,0.00
2022-12-08T01:41:01.734Z,0.00
2022-12-08T01:42:56.187Z,0.00
2022-12-08T01:43:56.696Z,0.00
2022-12-08T01:44:56.962Z,0.00
2022-12-08T01:45:54.281Z,0.00
2022-12-08T01:46:54.737Z,0.00
2022-12-08T01:47:55.042Z,0.00
2022-12-08T01:49:01.738Z,0.00
2022-12-08T01:50:01.321Z,0.00
2022-12-08T01:50:54.008Z,0.00
2022-12-08T01:51:54.371Z,0.00
2022-12-08T01:52:55.956Z,0.00
2022-12-08T01:53:55.110Z,0.00
2022-12-08T01:54:54.432Z,0.01
2022-12-08T01:55:54.823Z,0.00
2022-12-08T01:56:54.221Z,0.00
2022-12-08T01:57:54.521Z,0.00
2022-12-08T01:58:54.972Z,0.00
2022-12-08T01:59:56.319Z,0.00
2022-12-08T02:00:56.729Z,0.02
2022-12-08T02:01:56.048Z,0.00
2022-12-08T02:02:54.462Z,0.00
2022-12-08T02:03:55.636Z,0.00
2022-12-08T02:04:55.386Z,0.00
2022-12-08T02:06:00.651Z,0.00
2022-12-08T02:06:55.788Z,0.00
2022-12-08T02:08:55.481Z,0.00
2022-12-08T02:09:54.948Z,0.00
2022-12-08T02:11:20.127Z,0.00
2022-12-08T02:11:54.492Z,0.00
2022-12-08T02:12:54.892Z,0.00
2022-12-08T02:13:54.180Z,0.00
2022-12-08T02:15:20.857Z,0.02
2022-12-08T02:15:53.946Z,0.00
2022-12-08T02:16:54.239Z,0.00
2022-12-08T02:17:54.627Z,0.00
2022-12-08T02:19:22.387Z,0.02
2022-12-08T02:19:55.281Z,0.00
2022-12-08T02:20:57.045Z,0.04
2022-12-08T02:22:09.576Z,0.00
2022-12-08T02:22:54.326Z,0.00
2022-12-08T02:25:09.631Z,0.00
2022-12-08T02:25:15.846Z,0.00
2022-12-08T02:26:16.325Z,0.00
2022-12-08T02:27:16.612Z,0.00
2022-12-08T02:28:16.872Z,0.00
2022-12-08T02:30:06.554Z,0.04
2022-12-08T02:30:15.607Z,0.00
2022-12-08T02:31:16.093Z,0.00
2022-12-08T02:32:16.397Z,0.00
2022-12-08T02:33:22.977Z,0.00
2022-12-08T02:34:16.061Z,0.00
2022-12-08T02:35:41.416Z,0.00
2022-12-08T02:36:15.755Z,0.00
2022-12-08T02:37:19.168Z,0.00
2022-12-08T02:38:16.368Z,0.00
2022-12-08T02:39:15.786Z,0.00
2022-12-08T02:40:18.192Z,0.00
2022-12-08T02:41:15.461Z,0.00
2022-12-08T02:42:18.841Z,0.00
2022-12-08T02:43:15.146Z,0.00
2022-12-08T02:44:17.500Z,0.00
2022-12-08T02:45:17.866Z,0.00
2022-12-08T02:46:17.311Z,0.00
2022-12-08T02:47:16.546Z,0.00
2022-12-08T02:48:17.036Z,0.00
2022-12-08T02:49:17.286Z,0.00
2022-12-08T02:50:15.577Z,0.00
2022-12-08T02:51:43.190Z,0.00
2022-12-08T02:53:49.436Z,0.00
2022-12-08T02:54:49.821Z,0.00
2022-12-08T02:55:49.151Z,0.00
2022-12-08T02:56:48.661Z,0.00
2022-12-08T02:57:50.056Z,0.00
2022-12-08T02:58:49.521Z,0.00
2022-12-08T02:59:49.737Z,0.00
2022-12-08T03:00:49.071Z,0.00
2022-12-08T03:03:03.483Z,0.00
2022-12-08T03:03:55.421Z,0.00
2022-12-08T03:05:04.096Z,0.00
2022-12-08T03:05:56.397Z,0.00
2022-12-08T03:06:50.258Z,0.00
2022-12-08T03:08:04.197Z,0.00
2022-12-08T03:08:50.027Z,0.00
2022-12-08T03:09:49.320Z,0.00
2022-12-08T03:11:03.173Z,0.00
2022-12-08T03:12:03.547Z,0.00
2022-12-08T03:12:48.246Z,0.00
2022-12-08T03:13:55.142Z,0.00
2022-12-08T03:15:03.641Z,0.00
2022-12-08T03:15:51.576Z,0.00
2022-12-08T03:16:48.686Z,0.00
2022-12-08T03:18:03.647Z,0.00
2022-12-08T03:19:02.955Z,0.00
2022-12-08T03:19:49.133Z,0.04
2022-12-08T03:20:49.407Z,0.02
2022-12-08T03:22:03.039Z,0.00
2022-12-08T03:23:03.408Z,0.00
2022-12-08T03:24:03.832Z,0.00
2022-12-08T03:25:03.107Z,0.05
2022-12-08T03:25:48.916Z,0.00
2022-12-08T03:26:50.416Z,0.00
2022-12-08T03:28:03.307Z,0.00
2022-12-08T03:28:50.091Z,0.00
2022-12-08T03:29:48.453Z,0.04
2022-12-08T03:31:03.382Z,0.00
2022-12-08T03:32:03.755Z,0.00
2022-12-08T03:33:03.026Z,0.00
2022-12-08T03:33:48.703Z,0.00
2022-12-08T03:34:48.022Z,0.00
2022-12-08T03:35:55.686Z,0.00
2022-12-08T03:38:03.718Z,0.02
2022-12-08T03:39:03.064Z,0.00
2022-12-08T03:39:48.763Z,0.04
2022-12-08T03:41:03.677Z,0.00
2022-12-08T03:42:03.036Z,0.00
2022-12-08T03:42:48.809Z,0.00
2022-12-08T03:43:48.178Z,0.00
2022-12-08T03:45:03.092Z,0.00
2022-12-08T03:45:48.842Z,0.00
2022-12-08T03:46:49.187Z,0.00
2022-12-08T03:47:48.591Z,0.00
2022-12-08T03:48:49.681Z,0.00
2022-12-08T03:49:47.951Z,0.00
2022-12-08T03:50:48.257Z,0.00
2022-12-08T03:51:50.476Z,0.00
2022-12-08T03:52:47.867Z,0.00
2022-12-08T03:53:48.112Z,0.00
2022-12-08T03:54:49.666Z,0.00
2022-12-08T03:55:55.213Z,0.00
2022-12-08T03:56:49.236Z,0.00
2022-12-08T03:58:03.147Z,0.00
2022-12-08T03:59:02.532Z,0.00
2022-12-08T03:59:48.296Z,0.00
2022-12-08T04:01:03.290Z,0.00
2022-12-08T04:01:48.047Z,0.04
2022-12-08T04:03:02.999Z,0.00
2022-12-08T04:03:47.678Z,0.00
2022-12-08T04:05:02.639Z,0.00
2022-12-08T04:05:49.491Z,0.00
2022-12-08T04:06:48.987Z,0.00
2022-12-08T04:07:49.300Z,0.00
2022-12-08T04:08:47.528Z,0.00
2022-12-08T04:10:02.728Z,0.00
2022-12-08T04:12:23.086Z,0.00
2022-12-08T04:12:47.968Z,0.00
2022-12-08T04:13:49.371Z,0.00
2022-12-08T04:14:47.677Z,0.04
2022-12-08T04:15:55.358Z,0.00
2022-12-08T04:16:48.411Z,0.00
2022-12-08T04:17:47.849Z,0.00
2022-12-08T04:18:49.162Z,0.00
2022-12-08T04:19:47.547Z,0.00
2022-12-08T04:20:47.916Z,0.02
2022-12-08T04:21:50.486Z,0.00
2022-12-08T04:22:47.648Z,0.00
2022-12-08T04:23:48.281Z,0.00
2022-12-08T04:25:02.009Z,0.00
2022-12-08T04:25:47.816Z,0.00
2022-12-08T04:26:54.487Z,0.00
2022-12-08T04:27:47.633Z,0.00
2022-12-08T04:28:49.061Z,0.00
2022-12-08T04:29:47.343Z,0.00
2022-12-08T04:30:47.746Z,0.00
2022-12-08T04:31:49.141Z,0.00
2022-12-08T04:32:48.512Z,0.00
2022-12-08T04:33:47.822Z,0.00
2022-12-08T04:34:54.527Z,0.00
2022-12-08T04:35:47.576Z,0.00
2022-12-08T04:36:48.527Z,0.00
2022-12-08T04:37:47.882Z,0.00
2022-12-08T04:39:02.790Z,0.00
2022-12-08T04:39:48.596Z,0.00
2022-12-08T04:40:47.982Z,0.00
2022-12-08T04:42:02.844Z,0.00
2022-12-08T04:42:47.652Z,0.00
2022-12-08T04:43:48.917Z,0.00
2022-12-08T04:44:47.327Z,0.00
2022-12-08T04:45:50.966Z,0.00
2022-12-08T04:46:54.437Z,0.00
2022-12-08T04:47:48.531Z,0.00
2022-12-08T04:48:48.872Z,0.00
2022-12-08T04:49:49.204Z,0.00
2022-12-08T04:50:48.547Z,0.00
2022-12-08T04:51:47.942Z,0.00
2022-12-08T04:52:47.207Z,0.00
2022-12-08T04:54:02.172Z,0.00
2022-12-08T04:55:02.550Z,0.00
2022-12-08T04:55:48.313Z,0.00
2022-12-08T04:56:47.676Z,0.00
2022-12-08T04:58:48.442Z,0.00
2022-12-08T04:59:48.801Z,0.00
2022-12-08T05:00:49.203Z,0.00
2022-12-08T05:01:48.714Z,0.00
2022-12-08T05:02:48.999Z,0.00
2022-12-08T05:03:50.246Z,0.00
2022-12-08T05:04:48.647Z,0.00
2022-12-08T05:05:47.986Z,0.00
2022-12-08T05:06:48.398Z,0.00
2022-12-08T05:08:02.568Z,0.00
2022-12-08T05:08:48.097Z,0.32
2022-12-08T05:09:47.492Z,0.00
2022-12-08T05:12:01.741Z,0.00
2022-12-08T05:12:53.786Z,0.00
2022-12-08T05:13:46.931Z,0.00
2022-12-08T05:15:01.879Z,0.02
2022-12-08T05:15:48.709Z,0.00
2022-12-08T05:17:06.262Z,0.00
2022-12-08T05:17:48.286Z,0.00
2022-12-08T05:19:02.967Z,0.00
2022-12-08T05:20:01.907Z,0.00
2022-12-08T05:20:47.377Z,0.00
2022-12-08T05:21:46.708Z,0.00
2022-12-08T05:23:01.674Z,0.00
2022-12-08T05:24:02.092Z,0.00
2022-12-08T05:25:01.446Z,0.00
2022-12-08T05:25:47.205Z,0.00
2022-12-08T05:26:46.651Z,0.00
2022-12-08T05:28:11.435Z,0.00
2022-12-08T05:28:48.366Z,0.00
2022-12-08T05:29:46.786Z,0.00
2022-12-08T05:30:50.281Z,0.00
2022-12-08T05:33:47.370Z,0.00
2022-12-08T05:34:49.226Z,0.00
2022-12-08T05:35:49.202Z,0.00
2022-12-08T05:37:02.111Z,0.00
2022-12-08T05:37:54.221Z,0.00
2022-12-08T05:38:47.282Z,0.00
2022-12-08T05:41:13.766Z,0.00
2022-12-08T05:41:20.456Z,0.00
2022-12-08T05:42:24.534Z,0.00
2022-12-08T05:43:23.251Z,0.00
2022-12-08T05:44:19.496Z,0.02
2022-12-08T05:45:21.972Z,0.00
2022-12-08T05:46:21.485Z,0.00
2022-12-08T05:47:23.755Z,0.02
2022-12-08T05:48:20.112Z,0.00
2022-12-08T05:49:20.516Z,0.02
2022-12-08T05:50:19.883Z,0.02
2022-12-08T05:51:20.271Z,0.00
2022-12-08T05:52:21.711Z,0.00
2022-12-08T05:53:21.077Z,0.00
2022-12-08T05:54:19.403Z,0.05
2022-12-08T05:55:34.367Z,0.02
2022-12-08T05:56:20.149Z,0.00
2022-12-08T05:57:20.556Z,0.00
2022-12-08T05:58:23.126Z,0.04
2022-12-08T05:59:19.260Z,0.00
2022-12-08T06:00:35.266Z,0.00
2022-12-08T06:01:21.067Z,0.00
2022-12-08T06:02:19.450Z,0.00
2022-12-08T06:03:20.890Z,0.00
2022-12-08T06:04:20.186Z,0.00
2022-12-08T06:05:19.457Z,0.00
2022-12-08T06:06:21.917Z,0.00
2022-12-08T06:07:20.176Z,0.00
2022-12-08T06:09:10.563Z,0.00
2022-12-08T06:09:19.906Z,0.00
2022-12-08T06:10:19.326Z,0.00
2022-12-08T06:11:21.615Z,0.00
2022-12-08T06:12:20.018Z,0.00
2022-12-08T06:13:45.356Z,0.00
2022-12-08T06:14:19.676Z,0.00
2022-12-08T06:15:21.266Z,0.01
2022-12-08T06:16:19.411Z,0.00
2022-12-08T06:17:21.808Z,0.00
2022-12-08T06:18:21.118Z,0.00
2022-12-08T06:19:19.421Z,0.00
2022-12-08T06:20:47.879Z,0.00
2022-12-08T06:21:19.072Z,0.00
2022-12-08T06:22:19.423Z,0.00
2022-12-08T06:23:19.761Z,0.00
2022-12-08T06:24:20.140Z,0.00
2022-12-08T06:25:19.448Z,0.00
2022-12-08T06:26:26.361Z,0.00
2022-12-08T06:27:19.162Z,0.00
2022-12-08T06:28:19.526Z,0.05
2022-12-08T06:29:19.907Z,0.00
2022-12-08T06:30:20.253Z,0.02
2022-12-08T06:31:19.647Z,0.00
2022-12-08T06:32:25.798Z,0.00
2022-12-08T06:33:20.307Z,0.02
2022-12-08T06:34:20.747Z,0.02
2022-12-08T06:35:19.997Z,0.00
2022-12-08T06:36:20.367Z,0.01
2022-12-08T06:37:19.756Z,0.05
2022-12-08T06:38:20.097Z,0.01
2022-12-08T06:39:19.457Z,0.03
2022-12-08T06:40:21.925Z,0.00
2022-12-08T06:41:21.248Z,0.02
2022-12-08T06:42:19.527Z,0.03
2022-12-08T06:43:19.840Z,0.03
2022-12-08T06:44:19.337Z,0.03
2022-12-08T06:45:19.649Z,0.05
2022-12-08T06:46:19.122Z,0.08
2022-12-08T06:47:26.219Z,0.07
2022-12-08T06:48:20.724Z,0.07
2022-12-08T06:49:19.090Z,0.10
2022-12-08T06:50:59.003Z,0.15
2022-12-08T06:51:18.698Z,0.16
2022-12-08T06:52:19.051Z,0.18
2022-12-08T06:53:25.642Z,0.21
2022-12-08T06:54:19.782Z,0.22
2022-12-08T06:55:50.623Z,0.25
2022-12-08T06:56:20.547Z,0.26
2022-12-08T06:57:19.878Z,0.33
2022-12-08T06:58:19.157Z,0.38
2022-12-08T06:59:18.482Z,0.45
2022-12-08T07:00:19.802Z,0.51
2022-12-08T07:01:21.307Z,0.62
2022-12-08T07:02:20.609Z,0.74
2022-12-08T07:03:19.933Z,0.81
2022-12-08T07:04:19.266Z,0.90
2022-12-08T07:05:20.664Z,0.96
2022-12-08T07:06:18.951Z,1.08
2022-12-08T07:07:25.592Z,1.20
2022-12-08T07:08:20.862Z,1.33
2022-12-08T07:09:19.026Z,1.42
2022-12-08T07:10:19.391Z,1.49
2022-12-08T07:11:22.030Z,1.63
2022-12-08T07:12:20.053Z,1.78
2022-12-08T07:13:19.548Z,1.94
2022-12-08T07:14:21.879Z,2.22
2022-12-08T07:15:20.218Z,2.94
2022-12-08T07:16:18.621Z,3.18
2022-12-08T07:17:26.113Z,3.95
2022-12-08T07:18:20.253Z,4.29
2022-12-08T07:19:18.524Z,4.58
2022-12-08T07:20:19.871Z,4.79
2022-12-08T07:21:18.229Z,5.07
2022-12-08T07:22:50.631Z,4.82
2022-12-08T07:23:19.084Z,5.09
2022-12-08T07:25:09.280Z,6.23
2022-12-08T07:25:18.627Z,6.32
2022-12-08T07:26:18.956Z,7.02
2022-12-08T07:27:20.268Z,7.30
2022-12-08T07:28:19.676Z,7.40
2022-12-08T07:29:26.031Z,7.26
2022-12-08T07:30:19.628Z,7.20
2022-12-08T07:31:20.797Z,6.82
2022-12-08T07:32:21.152Z,7.38
2022-12-08T07:33:44.431Z,8.09
2022-12-08T07:34:19.768Z,8.27
2022-12-08T07:35:18.008Z,8.61
2022-12-08T07:36:20.538Z,9.36
2022-12-08T07:37:18.837Z,9.51
2022-12-08T07:38:19.158Z,9.60
2022-12-08T07:39:18.444Z,9.87
2022-12-08T07:40:44.828Z,10.13
2022-12-08T07:41:18.086Z,10.50
2022-12-08T07:42:18.537Z,10.97
2022-12-08T07:43:18.838Z,11.14
2022-12-08T07:44:19.209Z,11.56
2022-12-08T07:45:18.499Z,11.76
2022-12-08T07:46:18.938Z,12.21
2022-12-08T07:47:19.216Z,12.17
2022-12-08T07:48:19.599Z,11.39
2022-12-08T07:49:18.857Z,10.50
2022-12-08T07:50:18.188Z,10.28
2022-12-08T07:51:22.678Z,10.01
2022-12-08T07:52:18.897Z,10.47
2022-12-08T07:53:21.367Z,11.15
2022-12-08T07:54:20.652Z,11.41
2022-12-08T07:55:18.939Z,11.28
2022-12-08T07:56:20.326Z,11.55
2022-12-08T07:57:18.657Z,12.29
2022-12-08T07:58:19.047Z,13.47
2022-12-08T07:59:18.272Z,14.02
2022-12-08T08:00:18.608Z,14.59
2022-12-08T08:01:19.045Z,15.14
2022-12-08T08:02:26.543Z,16.56
2022-12-08T08:03:19.838Z,16.84
2022-12-08T08:04:25.322Z,16.96
2022-12-08T08:05:18.382Z,17.27
2022-12-08T08:06:24.989Z,17.11
2022-12-08T08:07:20.203Z,16.81
2022-12-08T08:08:18.538Z,16.83
2022-12-08T08:09:17.796Z,16.88
2022-12-08T08:10:18.098Z,17.19
2022-12-08T08:11:33.055Z,17.58
2022-12-08T08:12:34.199Z,17.46
2022-12-08T08:13:19.112Z,18.19
2022-12-08T08:14:25.857Z,18.98
2022-12-08T08:15:18.831Z,20.51
2022-12-08T08:16:18.339Z,22.16
2022-12-08T08:17:18.677Z,23.53
2022-12-08T08:18:18.877Z,23.30
2022-12-08T08:19:18.243Z,23.28
2022-12-08T08:21:43.050Z,22.46
2022-12-08T08:22:22.378Z,23.32
2022-12-08T08:23:19.656Z,24.21
2022-12-08T08:24:20.013Z,24.51
2022-12-08T08:25:19.327Z,25.65
2022-12-08T08:26:20.722Z,26.08
2022-12-08T08:27:21.163Z,26.72
2022-12-08T08:28:19.317Z,28.76
2022-12-08T08:29:19.738Z,31.35
2022-12-08T08:30:47.362Z,32.89
2022-12-08T08:31:20.446Z,33.88
2022-12-08T08:32:19.934Z,36.47
2022-12-08T08:33:21.013Z,40.32
2022-12-08T08:34:21.432Z,43.50
2022-12-08T08:35:19.714Z,43.95
2022-12-08T08:36:26.323Z,47.32
2022-12-08T08:37:20.730Z,52.02
2022-12-08T08:38:20.874Z,52.70
2022-12-08T08:39:19.063Z,47.60
2022-12-08T08:40:20.472Z,43.93
2022-12-08T08:41:19.823Z,39.60
2022-12-08T08:42:20.191Z,37.36
2022-12-08T08:43:30.437Z,36.87
2022-12-08T08:44:20.822Z,34.29
2022-12-08T08:45:19.188Z,33.37
2022-12-08T08:46:19.565Z,32.64
2022-12-08T08:47:19.874Z,31.75
2022-12-08T08:48:19.187Z,30.55
2022-12-08T08:49:19.668Z,32.10
2022-12-08T08:50:19.947Z,33.77
2022-12-08T08:51:20.308Z,36.11
2022-12-08T08:52:19.612Z,37.02
2022-12-08T08:53:20.028Z,36.77
2022-12-08T08:54:21.452Z,38.32
2022-12-08T08:55:21.847Z,38.80
2022-12-08T08:56:20.064Z,40.30
2022-12-08T08:57:25.257Z,41.46
2022-12-08T08:58:20.797Z,41.85
2022-12-08T08:59:26.381Z,39.20
2022-12-08T09:00:20.477Z,37.39
2022-12-08T09:01:18.757Z,37.66
2022-12-08T09:02:19.267Z,38.60
2022-12-08T09:03:20.523Z,41.05
2022-12-08T09:04:18.847Z,42.86
2022-12-08T09:05:19.242Z,41.41
2022-12-08T09:06:19.612Z,40.56
2022-12-08T09:07:20.903Z,42.46
2022-12-08T09:08:21.388Z,42.43
2022-12-08T09:09:19.575Z,43.95
2022-12-08T09:10:33.597Z,43.07
2022-12-08T09:11:19.323Z,43.83
2022-12-08T09:12:19.728Z,45.44
2022-12-08T09:13:20.099Z,46.15
2022-12-08T09:14:19.449Z,48.99
2022-12-08T09:15:19.822Z,53.61
2022-12-08T09:16:20.241Z,58.71
2022-12-08T09:17:20.572Z,60.55
2022-12-08T09:18:18.852Z,59.30
2022-12-08T09:19:19.217Z,63.06
2022-12-08T09:20:19.592Z,68.28
2022-12-08T09:21:19.978Z,67.91
2022-12-08T09:22:19.363Z,67.22
2022-12-08T09:23:43.656Z,60.78
2022-12-08T09:24:21.124Z,62.04
2022-12-08T09:25:18.433Z,65.93
2022-12-08T09:26:20.812Z,62.07
2022-12-08T09:27:19.097Z,58.35
2022-12-08T09:28:18.524Z,57.87
2022-12-08T09:29:18.803Z,52.02
2022-12-08T09:30:19.166Z,50.94
2022-12-08T09:31:19.657Z,50.39
2022-12-08T09:32:18.923Z,53.77
2022-12-08T09:33:19.243Z,58.06
2022-12-08T09:34:18.567Z,58.68
2022-12-08T09:35:21.062Z,60.35
2022-12-08T09:36:19.278Z,65.83
2022-12-08T09:37:20.805Z,67.30
2022-12-08T09:38:20.102Z,76.13
2022-12-08T09:39:18.313Z,83.42
2022-12-08T09:40:18.692Z,80.50
2022-12-08T09:41:19.113Z,79.22
2022-12-08T09:42:19.289Z,76.39
2022-12-08T09:43:18.743Z,67.73
2022-12-08T09:44:20.484Z,68.20
2022-12-08T09:45:19.570Z,71.84
2022-12-08T09:46:18.941Z,76.51
2022-12-08T09:47:20.184Z,92.08
2022-12-08T09:48:18.527Z,103.02
2022-12-08T09:49:22.267Z,103.28
2022-12-08T09:50:44.277Z,100.99
2022-12-08T09:51:18.612Z,98.74
2022-12-08T09:52:21.129Z,96.20
2022-12-08T09:53:18.326Z,102.83
2022-12-08T09:54:18.744Z,123.63
2022-12-08T09:55:19.152Z,137.97
2022-12-08T09:56:18.461Z,138.51
2022-12-08T09:57:18.907Z,135.89
2022-12-08T09:58:20.188Z,121.13
2022-12-08T09:59:19.609Z,108.11
2022-12-08T10:00:19.059Z,118.17
2022-12-08T10:01:18.301Z,126.80
2022-12-08T10:02:44.629Z,125.10
2022-12-08T10:03:17.908Z,123.10
2022-12-08T10:04:18.289Z,122.28
2022-12-08T10:05:18.817Z,124.20
2022-12-08T10:06:25.324Z,130.62
2022-12-08T10:07:25.695Z,136.66
2022-12-08T10:08:18.812Z,136.95
2022-12-08T10:09:22.665Z,132.47
2022-12-08T10:10:19.391Z,129.11
2022-12-08T10:11:19.791Z,126.73
2022-12-08T10:12:18.176Z,126.99
2022-12-08T10:13:20.544Z,124.82
2022-12-08T10:14:17.837Z,126.34
2022-12-08T10:15:18.263Z,127.73
2022-12-08T10:16:29.714Z,117.47
2022-12-08T10:17:18.973Z,110.96
2022-12-08T10:18:44.293Z,109.02
2022-12-08T10:19:18.597Z,103.09
2022-12-08T10:20:19.104Z,96.98
2022-12-08T10:21:18.264Z,96.65
2022-12-08T10:22:45.061Z,95.33
2022-12-08T10:23:17.942Z,95.16
2022-12-08T10:24:19.332Z,96.37
2022-12-08T10:25:17.674Z,98.69
2022-12-08T10:26:25.289Z,117.02
2022-12-08T10:27:19.457Z,137.38
2022-12-08T10:28:19.837Z,154.53
2022-12-08T10:29:18.062Z,175.46
2022-12-08T10:30:19.467Z,193.44
2022-12-08T10:31:18.877Z,205.11
2022-12-08T10:32:19.152Z,216.01
2022-12-08T10:33:18.497Z,214.10
2022-12-08T10:34:21.076Z,193.55
2022-12-08T10:35:21.353Z,183.40
2022-12-08T10:36:20.588Z,176.27
2022-12-08T10:37:21.928Z,181.15
2022-12-08T10:38:18.177Z,190.24
2022-12-08T10:39:17.457Z,188.48
2022-12-08T10:40:46.007Z,191.64
2022-12-08T10:41:18.227Z,191.62
2022-12-08T10:42:17.457Z,188.90
2022-12-08T10:43:17.821Z,182.01
2022-12-08T10:44:18.177Z,177.00
2022-12-08T10:45:18.529Z,174.45
2022-12-08T10:46:17.942Z,174.27
2022-12-08T10:47:18.191Z,179.95
2022-12-08T10:48:18.522Z,194.81
2022-12-08T10:49:17.781Z,210.37
2022-12-08T10:50:18.158Z,221.42
2022-12-08T10:51:17.433Z,222.68
2022-12-08T10:52:17.813Z,227.71
2022-12-08T10:53:18.146Z,233.47
2022-12-08T10:54:21.866Z,233.50
2022-12-08T10:55:20.928Z,233.34
2022-12-08T10:56:18.139Z,234.47
2022-12-08T10:57:17.458Z,234.80
2022-12-08T10:58:18.856Z,242.95
2022-12-08T10:59:19.048Z,249.58
2022-12-08T11:00:45.636Z,255.63
2022-12-08T11:01:17.836Z,256.59
2022-12-08T11:02:20.326Z,258.69
2022-12-08T11:03:17.407Z,261.52
2022-12-08T11:04:32.436Z,261.85
2022-12-08T11:05:19.176Z,261.01
2022-12-08T11:06:17.416Z,256.69
2022-12-08T11:07:25.073Z,252.87
2022-12-08T11:08:17.049Z,254.15
2022-12-08T11:09:44.732Z,260.45
2022-12-08T11:10:17.721Z,261.57
2022-12-08T11:11:24.339Z,263.56
2022-12-08T11:12:18.391Z,268.36
2022-12-08T11:13:17.687Z,278.40
2022-12-08T11:14:16.992Z,286.60
2022-12-08T11:15:17.520Z,294.59
2022-12-08T11:16:32.459Z,293.39
2022-12-08T11:17:18.103Z,291.53
2022-12-08T11:18:17.277Z,285.96
2022-12-08T11:19:18.787Z,282.07
2022-12-08T11:20:17.897Z,264.80
2022-12-08T11:21:43.256Z,239.62
2022-12-08T11:22:17.497Z,238.71
2022-12-08T11:23:17.853Z,251.87
2022-12-08T11:24:17.142Z,266.20
2022-12-08T11:25:17.466Z,267.03
2022-12-08T11:26:42.882Z,269.78
2022-12-08T11:27:17.198Z,263.42
2022-12-08T11:28:20.626Z,237.95
2022-12-08T11:29:17.802Z,219.75
2022-12-08T11:30:17.450Z,214.41
2022-12-08T11:31:43.623Z,212.33
2022-12-08T11:32:16.737Z,214.33
2022-12-08T11:33:17.131Z,222.41
2022-12-08T11:34:17.432Z,229.10
2022-12-08T11:35:17.752Z,220.48
2022-12-08T11:36:17.067Z,216.73
2022-12-08T11:37:28.562Z,216.41
2022-12-08T11:38:22.107Z,211.97
2022-12-08T11:39:48.256Z,204.51
2022-12-08T11:40:17.393Z,204.66
2022-12-08T11:41:17.063Z,213.41
2022-12-08T11:42:17.032Z,229.38
2022-12-08T11:43:17.432Z,233.85
2022-12-08T11:44:16.667Z,224.79
2022-12-08T11:45:17.920Z,214.41
2022-12-08T11:46:17.461Z,201.23
2022-12-08T11:47:17.691Z,191.24
2022-12-08T11:48:16.986Z,185.13
2022-12-08T11:49:18.571Z,186.66
2022-12-08T11:50:19.589Z,191.06
2022-12-08T11:51:18.022Z,190.31
2022-12-08T11:52:17.304Z,185.67
2022-12-08T11:53:19.766Z,179.11
2022-12-08T11:54:20.111Z,176.42
2022-12-08T11:55:19.439Z,177.80
2022-12-08T11:56:19.795Z,177.00
2022-12-08T11:57:17.002Z,174.21
2022-12-08T11:58:17.402Z,167.34
2022-12-08T11:59:24.008Z,157.67
2022-12-08T12:00:23.246Z,146.06
2022-12-08T12:01:23.577Z,137.82
2022-12-08T12:02:17.702Z,132.74
2022-12-08T12:03:31.564Z,127.55
2022-12-08T12:04:17.306Z,125.09
2022-12-08T12:05:23.538Z,122.82
2022-12-08T12:06:38.013Z,124.60
2022-12-08T12:07:23.039Z,129.27
2022-12-08T12:08:45.671Z,130.17
2022-12-08T12:09:16.846Z,129.73
2022-12-08T12:10:19.281Z,129.11
2022-12-08T12:11:16.441Z,126.92
2022-12-08T12:12:36.307Z,127.44
2022-12-08T12:13:18.087Z,132.71
2022-12-08T12:14:31.968Z,151.50
2022-12-08T12:15:16.722Z,162.57
2022-12-08T12:16:17.166Z,179.47
2022-12-08T12:17:18.416Z,186.67
2022-12-08T12:18:17.089Z,185.50
2022-12-08T12:19:17.992Z,180.25
2022-12-08T12:20:17.256Z,179.25
2022-12-08T12:21:42.576Z,183.71
2022-12-08T12:22:17.052Z,183.00
2022-12-08T12:23:19.276Z,179.40
2022-12-08T12:24:19.685Z,174.29
2022-12-08T12:26:01.172Z,165.37
2022-12-08T12:26:17.555Z,163.81
2022-12-08T12:27:16.561Z,159.26
2022-12-08T12:28:43.856Z,147.49
2022-12-08T12:29:16.106Z,143.87
2022-12-08T12:30:16.327Z,138.31
2022-12-08T12:31:16.691Z,132.84
2022-12-08T12:32:44.296Z,126.49
2022-12-08T12:33:16.201Z,125.63
2022-12-08T12:34:16.553Z,124.99
2022-12-08T12:35:16.906Z,124.26
2022-12-08T12:36:42.130Z,121.51
2022-12-08T12:37:16.548Z,120.00
2022-12-08T12:38:17.235Z,118.07
2022-12-08T12:39:16.007Z,117.33
2022-12-08T12:40:17.295Z,114.23
2022-12-08T12:41:20.953Z,112.35
2022-12-08T12:42:17.986Z,114.28
2022-12-08T12:43:23.637Z,121.25
2022-12-08T12:44:16.641Z,124.60
2022-12-08T12:45:15.896Z,122.93
2022-12-08T12:46:16.281Z,123.15
2022-12-08T12:47:16.586Z,123.38
2022-12-08T12:48:17.871Z,120.82
2022-12-08T12:49:16.207Z,116.57
2022-12-08T12:50:18.501Z,114.58
2022-12-08T12:51:16.832Z,116.01
2022-12-08T12:52:16.141Z,114.49
2022-12-08T12:53:22.716Z,112.61
2022-12-08T12:54:23.091Z,108.00
2022-12-08T12:55:16.116Z,104.20
2022-12-08T12:56:48.724Z,98.52
2022-12-08T12:57:15.823Z,97.51
2022-12-08T12:58:18.237Z,96.57
2022-12-08T13:00:09.019Z,99.37
2022-12-08T13:00:15.746Z,99.70
2022-12-08T13:01:18.176Z,101.89
2022-12-08T13:02:16.568Z,103.10
2022-12-08T13:03:17.781Z,104.07
2022-12-08T13:04:16.017Z,105.56
2022-12-08T13:05:42.404Z,106.88
2022-12-08T13:06:15.662Z,107.66
2022-12-08T13:07:17.077Z,109.33
2022-12-08T13:08:16.380Z,109.80
2022-12-08T13:09:16.611Z,108.36
2022-12-08T13:10:15.971Z,105.55
2022-12-08T13:11:16.371Z,102.15
2022-12-08T13:12:16.687Z,99.00
2022-12-08T13:13:42.035Z,95.33
2022-12-08T13:14:16.317Z,93.81
2022-12-08T13:15:16.643Z,92.24